createdAt,value
2022-08-24T00:01:57.352Z,98360.88
2022-08-24T00:04:28.270Z,98370.41
2022-08-24T00:06:57.800Z,98376.19
2022-08-24T00:09:26.314Z,98370.63
2022-08-24T00:11:54.536Z,98366.25
2022-08-24T00:14:22.895Z,98365.03
2022-08-24T00:16:51.153Z,98375.50
2022-08-24T00:19:19.337Z,98374.28
2022-08-24T00:21:49.416Z,98379.00
2022-08-24T00:24:17.644Z,98370.28
2022-08-24T00:26:46.539Z,98371.13
2022-08-24T00:29:15.433Z,98375.53
2022-08-24T00:31:43.861Z,98365.97
2022-08-24T00:34:14.034Z,98377.13
2022-08-24T00:36:43.353Z,98377.63
2022-08-24T00:39:13.267Z,98379.44
2022-08-24T00:41:43.544Z,98379.75
2022-08-24T00:44:13.881Z,98381.31
2022-08-24T00:46:46.021Z,98387.13
2022-08-24T00:49:20.590Z,98383.13
2022-08-24T00:51:56.037Z,98375.91
2022-08-24T00:54:28.457Z,98367.44
2022-08-24T00:56:59.228Z,98369.00
2022-08-24T00:59:29.500Z,98371.38
2022-08-24T01:02:09.033Z,98380.28
2022-08-24T01:04:49.091Z,98384.28
2022-08-24T01:07:17.703Z,98393.66
2022-08-24T01:09:47.884Z,98394.66
2022-08-24T01:12:16.841Z,98388.34
2022-08-24T01:14:45.298Z,98394.06
2022-08-24T01:17:34.037Z,98396.44
2022-08-24T01:20:08.275Z,98405.41
2022-08-24T01:22:46.582Z,98401.63
2022-08-24T01:25:16.458Z,98401.09
2022-08-24T01:27:45.076Z,98401.66
2022-08-24T01:30:17.381Z,98407.50
2022-08-24T01:32:54.946Z,98405.66
2022-08-24T01:35:23.563Z,98401.69
2022-08-24T01:37:52.545Z,98401.69
2022-08-24T01:40:23.003Z,98401.50
2022-08-24T01:42:52.892Z,98399.78
2022-08-24T01:45:21.879Z,98394.34
2022-08-24T01:47:50.023Z,98403.09
2022-08-24T01:50:18.126Z,98391.13
2022-08-24T01:53:04.454Z,98390.69
2022-08-24T01:55:35.761Z,98392.66
2022-08-24T01:58:05.371Z,98384.53
2022-08-24T02:00:34.703Z,98386.47
2022-08-24T02:03:03.990Z,98386.38
2022-08-24T02:05:32.580Z,98387.50
2022-08-24T02:08:00.876Z,98385.44
2022-08-24T02:10:29.356Z,98386.75
2022-08-24T02:12:59.792Z,98385.38
2022-08-24T02:15:29.680Z,98376.91
2022-08-24T02:17:58.720Z,98386.81
2022-08-24T02:20:27.543Z,98386.31
2022-08-24T02:22:56.147Z,98383.88
2022-08-24T02:25:25.289Z,98394.44
2022-08-24T02:27:53.818Z,98394.69
2022-08-24T02:30:23.617Z,98395.00
2022-08-24T02:32:51.713Z,98399.19
2022-08-24T02:35:20.136Z,98404.00
2022-08-24T02:37:48.453Z,98398.47
2022-08-24T02:40:16.834Z,98397.25
2022-08-24T02:42:45.574Z,98401.66
2022-08-24T02:45:13.901Z,98405.69
2022-08-24T02:47:44.024Z,98415.19
2022-08-24T02:50:15.529Z,98411.16
2022-08-24T02:52:44.069Z,98407.72
2022-08-24T02:55:14.710Z,98410.34
2022-08-24T02:57:43.138Z,98411.31
2022-08-24T03:00:14.932Z,98412.38
2022-08-24T03:02:45.759Z,98403.13
2022-08-24T03:05:14.493Z,98402.03
2022-08-24T03:07:43.091Z,98415.31
2022-08-24T03:10:11.803Z,98406.06
2022-08-24T03:12:40.483Z,98415.41
2022-08-24T03:15:11.523Z,98419.56
2022-08-24T03:17:41.089Z,98414.53
2022-08-24T03:20:14.383Z,98419.91
2022-08-24T03:22:42.967Z,98422.31
2022-08-24T03:25:12.382Z,98418.25
2022-08-24T03:27:40.931Z,98415.16
2022-08-24T03:30:12.970Z,98417.84
2022-08-24T03:32:41.278Z,98419.19
2022-08-24T03:35:10.656Z,98418.16
2022-08-24T03:37:40.453Z,98427.84
2022-08-24T03:40:22.489Z,98432.69
2022-08-24T03:42:53.622Z,98436.47
2022-08-24T03:45:23.013Z,98436.53
2022-08-24T03:47:51.191Z,98441.94
2022-08-24T03:50:20.473Z,98439.78
2022-08-24T03:52:50.324Z,98437.59
2022-08-24T03:55:19.191Z,98435.34
2022-08-24T03:57:47.483Z,98441.59
2022-08-24T04:00:16.160Z,98435.25
2022-08-24T04:02:45.214Z,98440.00
2022-08-24T04:05:14.465Z,98429.22
2022-08-24T04:07:42.860Z,98428.00
2022-08-24T04:10:14.626Z,98427.09
2022-08-24T04:12:43.100Z,98424.28
2022-08-24T04:15:12.480Z,98430.06
2022-08-24T04:17:40.602Z,98425.91
2022-08-24T04:20:10.000Z,98427.63
2022-08-24T04:22:38.218Z,98427.16
2022-08-24T04:25:09.274Z,98425.78
2022-08-24T04:27:41.563Z,98416.75
2022-08-24T04:30:14.151Z,98413.13
2022-08-24T04:32:43.219Z,98410.06
2022-08-24T04:35:12.045Z,98411.38
2022-08-24T04:37:40.242Z,98412.84
2022-08-24T04:40:09.902Z,98419.06
2022-08-24T04:42:40.066Z,98420.13
2022-08-24T04:45:10.628Z,98427.16
2022-08-24T04:47:38.831Z,98432.66
2022-08-24T04:50:08.312Z,98434.81
2022-08-24T04:52:37.117Z,98442.22
2022-08-24T04:55:07.616Z,98439.53
2022-08-24T04:57:36.214Z,98433.50
2022-08-24T05:00:09.440Z,98418.56
2022-08-24T05:02:44.766Z,98423.91
2022-08-24T05:05:13.550Z,98421.50
2022-08-24T05:07:41.978Z,98429.09
2022-08-24T05:10:11.678Z,98435.31
2022-08-24T05:12:40.289Z,98435.22
2022-08-24T05:15:10.964Z,98434.25
2022-08-24T05:17:41.129Z,98428.78
2022-08-24T05:20:12.047Z,98426.59
2022-08-24T05:22:40.435Z,98419.25
2022-08-24T05:25:09.448Z,98425.34
2022-08-24T05:27:38.030Z,98427.66
2022-08-24T05:30:07.568Z,98433.44
2022-08-24T05:32:37.440Z,98440.75
2022-08-24T05:35:09.511Z,98432.31
2022-08-24T05:37:38.595Z,98438.66
2022-08-24T05:40:10.347Z,98438.00
2022-08-24T05:42:39.104Z,98436.69
2022-08-24T05:45:08.860Z,98433.13
2022-08-24T05:47:38.615Z,98436.06
2022-08-24T05:50:08.243Z,98445.22
2022-08-24T05:52:36.730Z,98439.97
2022-08-24T05:55:05.815Z,98439.59
2022-08-24T05:57:36.011Z,98446.13
2022-08-24T06:00:06.690Z,98426.84
2022-08-24T06:02:35.248Z,98436.38
2022-08-24T06:05:05.164Z,98422.47
2022-08-24T06:07:34.446Z,98431.59
2022-08-24T06:10:20.196Z,98439.19
2022-08-24T06:12:51.060Z,98433.25
2022-08-24T06:15:19.200Z,98438.09
2022-08-24T06:17:47.383Z,98441.72
2022-08-24T06:20:17.468Z,98438.22
2022-08-24T06:22:45.503Z,98442.13
2022-08-24T06:25:31.442Z,98446.19
2022-08-24T06:28:00.631Z,98457.44
2022-08-24T06:30:30.615Z,98455.03
2022-08-24T06:33:00.744Z,98457.91
2022-08-24T06:35:30.577Z,98455.50
2022-08-24T06:37:59.067Z,98457.91
2022-08-24T06:40:28.677Z,98456.28
2022-08-24T06:42:57.369Z,98457.09
2022-08-24T06:45:25.657Z,98462.34
2022-08-24T06:47:53.941Z,98467.19
2022-08-24T06:50:24.679Z,98460.75
2022-08-24T06:52:54.452Z,98462.31
2022-08-24T06:55:22.576Z,98465.19
2022-08-24T06:57:52.654Z,98462.75
2022-08-24T07:00:21.950Z,98455.06
2022-08-24T07:02:50.233Z,98474.38
2022-08-24T07:05:18.790Z,98467.16
2022-08-24T07:07:47.093Z,98463.13
2022-08-24T07:10:16.767Z,98465.88
2022-08-24T07:12:50.842Z,98463.94
2022-08-24T07:15:19.537Z,98464.66
2022-08-24T07:17:47.739Z,98457.34
2022-08-24T07:20:17.613Z,98457.31
2022-08-24T07:22:46.734Z,98458.13
2022-08-24T07:25:16.544Z,98464.38
2022-08-24T07:27:44.871Z,98471.41
2022-08-24T07:30:28.202Z,98477.38
2022-08-24T07:32:57.912Z,98477.75
2022-08-24T07:35:26.827Z,98474.94
2022-08-24T07:37:55.155Z,98469.81
2022-08-24T07:40:25.514Z,98472.81
2022-08-24T07:42:55.142Z,98462.81
2022-08-24T07:45:24.000Z,98460.81
2022-08-24T07:47:55.435Z,98468.50
2022-08-24T07:50:24.277Z,98477.34
2022-08-24T07:52:52.853Z,98469.19
2022-08-24T07:55:21.731Z,98467.81
2022-08-24T07:57:51.823Z,98479.19
2022-08-24T08:00:21.346Z,98480.06
2022-08-24T08:02:50.783Z,98482.63
2022-08-24T08:05:24.578Z,98491.25
2022-08-24T08:07:53.169Z,98504.66
2022-08-24T08:10:23.429Z,98498.09
2022-08-24T08:12:53.085Z,98508.53
2022-08-24T08:15:21.491Z,98511.19
2022-08-24T08:17:55.780Z,98511.06
2022-08-24T08:20:24.874Z,98503.75
2022-08-24T08:23:10.428Z,98504.34
2022-08-24T08:25:38.931Z,98506.19
2022-08-24T08:28:25.199Z,98516.13
2022-08-24T08:30:54.605Z,98512.66
2022-08-24T08:33:23.158Z,98517.94
2022-08-24T08:35:52.499Z,98510.69
2022-08-24T08:38:21.445Z,98507.31
2022-08-24T08:40:59.637Z,98505.59
2022-08-24T08:43:42.051Z,98500.50
2022-08-24T08:46:23.374Z,98506.34
2022-08-24T08:49:25.196Z,98505.06
2022-08-24T08:52:08.752Z,98499.31
2022-08-24T08:54:46.067Z,98509.38
2022-08-24T08:57:27.370Z,98513.22
2022-08-24T09:00:10.648Z,98518.03
2022-08-24T09:03:18.646Z,98516.75
2022-08-24T09:05:57.617Z,98523.22
2022-08-24T09:08:37.013Z,98519.25
2022-08-24T09:11:09.536Z,98524.91
2022-08-24T09:13:56.220Z,98520.59
2022-08-24T09:16:33.336Z,98520.91
2022-08-24T09:19:16.313Z,98522.22
2022-08-24T09:21:54.473Z,98522.84
2022-08-24T09:24:36.679Z,98520.09
2022-08-24T09:27:14.397Z,98510.16
2022-08-24T09:29:51.715Z,98509.19
2022-08-24T09:32:55.987Z,98513.50
2022-08-24T09:35:34.012Z,98512.41
2022-08-24T09:38:09.368Z,98512.31
2022-08-24T09:40:42.829Z,98507.25
2022-08-24T09:43:35.156Z,98507.25
2022-08-24T09:46:22.351Z,98512.31
2022-08-24T09:49:20.711Z,98500.53
2022-08-24T09:52:03.014Z,98505.91
2022-08-24T09:55:15.100Z,98500.47
2022-08-24T09:58:00.603Z,98501.22
2022-08-24T10:00:34.536Z,98499.16
2022-08-24T10:03:15.608Z,98496.78
2022-08-24T10:06:08.960Z,98501.91
2022-08-24T10:08:54.713Z,98496.50
2022-08-24T10:11:27.290Z,98502.97
2022-08-24T10:14:03.846Z,98500.44
2022-08-24T10:16:41.322Z,98501.66
2022-08-24T10:19:20.426Z,98500.78
2022-08-24T10:21:57.294Z,98496.56
2022-08-24T10:24:51.837Z,98492.69
2022-08-24T10:27:28.103Z,98496.13
2022-08-24T10:30:25.903Z,98489.97
2022-08-24T10:33:10.402Z,98498.97
2022-08-24T10:35:46.519Z,98495.59
2022-08-24T10:39:02.756Z,98499.56
2022-08-24T10:42:10.756Z,98497.56
2022-08-24T10:44:51.080Z,98483.38
2022-08-24T10:47:27.102Z,98490.44
2022-08-24T10:50:22.131Z,98487.50
2022-08-24T10:53:23.035Z,98485.97
2022-08-24T10:56:01.742Z,98484.69
2022-08-24T10:58:43.869Z,98484.09
2022-08-24T11:01:19.097Z,98495.63
2022-08-24T11:03:53.632Z,98492.69
2022-08-24T11:06:24.446Z,98496.59
2022-08-24T11:08:55.252Z,98496.59
2022-08-24T11:11:28.959Z,98495.19
2022-08-24T11:14:00.390Z,98494.97
2022-08-24T11:16:32.587Z,98486.28
2022-08-24T11:19:02.467Z,98488.00
2022-08-24T11:21:40.959Z,98492.78
2022-08-24T11:24:13.167Z,98493.66
2022-08-24T11:26:55.835Z,98489.25
2022-08-24T11:29:24.576Z,98489.97
2022-08-24T11:31:53.936Z,98482.56
2022-08-24T11:34:33.307Z,98494.88
2022-08-24T11:37:02.390Z,98492.28
2022-08-24T11:39:34.688Z,98483.00
2022-08-24T11:42:14.885Z,98481.63
2022-08-24T11:44:49.976Z,98471.09
2022-08-24T11:47:46.097Z,98467.28
2022-08-24T11:50:26.093Z,98472.06
2022-08-24T11:53:12.512Z,98466.16
2022-08-24T11:55:51.957Z,98469.34
2022-08-24T11:58:37.305Z,98471.59
2022-08-24T12:01:10.101Z,98464.69
2022-08-24T12:03:48.331Z,98464.16
2022-08-24T12:06:32.449Z,98466.91
2022-08-24T12:09:06.029Z,98476.50
2022-08-24T12:11:40.952Z,98481.91
2022-08-24T12:14:17.337Z,98473.44
2022-08-24T12:16:51.339Z,98480.38
2022-08-24T12:19:23.670Z,98471.75
2022-08-24T12:21:58.063Z,98480.25
2022-08-24T12:24:31.841Z,98485.88
2022-08-24T12:27:04.125Z,98488.91
2022-08-24T12:29:38.694Z,98486.94
2022-08-24T12:32:12.005Z,98474.50
2022-08-24T12:34:49.981Z,98478.44
2022-08-24T12:37:23.389Z,98475.50
2022-08-24T12:39:57.155Z,98472.97
2022-08-24T12:42:34.682Z,98474.94
2022-08-24T12:45:08.371Z,98469.91
2022-08-24T12:47:40.901Z,98460.88
2022-08-24T12:50:12.989Z,98469.19
2022-08-24T12:53:24.079Z,98465.22
2022-08-24T12:56:18.318Z,98456.31
2022-08-24T12:59:09.156Z,98463.50
2022-08-24T13:01:43.512Z,98460.22
2022-08-24T13:04:19.811Z,98449.06
2022-08-24T13:06:56.343Z,98454.09
2022-08-24T13:09:33.235Z,98452.91
2022-08-24T13:12:41.874Z,98451.56
2022-08-24T13:15:43.605Z,98451.44
2022-08-24T13:18:51.838Z,98460.16
2022-08-24T13:21:48.927Z,98458.00
2022-08-24T13:24:44.671Z,98460.56
2022-08-24T13:27:49.042Z,98467.06
2022-08-24T13:30:25.295Z,98466.53
2022-08-24T13:33:01.145Z,98451.75
2022-08-24T13:35:53.929Z,98449.25
2022-08-24T13:39:04.031Z,98456.22
2022-08-24T13:41:55.233Z,98441.56
2022-08-24T13:44:28.839Z,98445.28
2022-08-24T13:47:07.840Z,98439.00
2022-08-24T13:49:47.233Z,98436.03
2022-08-24T13:52:23.065Z,98435.47
2022-08-24T13:55:07.079Z,98433.44
2022-08-24T13:57:42.947Z,98427.47
2022-08-24T14:00:30.402Z,98418.94
2022-08-24T14:03:06.869Z,98415.16
2022-08-24T14:05:37.165Z,98417.09
2022-08-24T14:08:13.403Z,98409.88
2022-08-24T14:10:53.753Z,98409.78
2022-08-24T14:13:29.342Z,98404.72
2022-08-24T14:16:15.185Z,98403.66
2022-08-24T14:18:57.512Z,98405.63
2022-08-24T14:21:37.280Z,98401.31
2022-08-24T14:24:10.088Z,98399.63
2022-08-24T14:27:08.326Z,98398.97
2022-08-24T14:29:43.338Z,98402.44
2022-08-24T14:32:29.590Z,98397.72
2022-08-24T14:35:21.031Z,98398.16
2022-08-24T14:38:05.784Z,98393.44
2022-08-24T14:40:42.476Z,98399.91
2022-08-24T14:43:30.629Z,98392.25
2022-08-24T14:46:08.936Z,98405.09
2022-08-24T14:48:43.711Z,98396.59
2022-08-24T14:51:17.559Z,98397.38
2022-08-24T14:53:52.950Z,98396.63
2022-08-24T14:56:29.964Z,98395.41
2022-08-24T14:59:05.116Z,98394.44
2022-08-24T15:01:42.071Z,98393.59
2022-08-24T15:04:30.707Z,98394.38
2022-08-24T15:07:28.474Z,98413.72
2022-08-24T15:09:58.614Z,98420.22
2022-08-24T15:12:39.601Z,98427.00
2022-08-24T15:15:12.796Z,98420.84
2022-08-24T15:17:53.194Z,98421.69
2022-08-24T15:20:23.057Z,98422.22
2022-08-24T15:22:56.454Z,98424.38
2022-08-24T15:25:34.089Z,98424.09
2022-08-24T15:28:11.398Z,98424.72
2022-08-24T15:30:41.960Z,98423.59
2022-08-24T15:33:15.967Z,98423.06
2022-08-24T15:35:48.944Z,98417.97
2022-08-24T15:38:19.693Z,98408.88
2022-08-24T15:40:53.601Z,98398.75
2022-08-24T15:43:22.656Z,98394.84
2022-08-24T15:45:52.393Z,98398.53
2022-08-24T15:48:25.976Z,98400.88
2022-08-24T15:50:55.951Z,98423.91
2022-08-24T15:53:32.922Z,98425.16
2022-08-24T15:56:01.932Z,98425.38
2022-08-24T15:58:35.251Z,98419.59
2022-08-24T16:01:40.938Z,98417.91
2022-08-24T16:04:12.788Z,98413.81
2022-08-24T16:06:45.220Z,98416.91
2022-08-24T16:09:33.891Z,98408.38
2022-08-24T16:12:04.837Z,98406.34
2022-08-24T16:14:35.771Z,98419.81
2022-08-24T16:17:21.764Z,98422.97
2022-08-24T16:19:53.743Z,98430.47
2022-08-24T16:22:34.498Z,98414.31
2022-08-24T16:25:14.963Z,98425.31
2022-08-24T16:28:07.855Z,98422.25
2022-08-24T16:30:45.430Z,98417.00
2022-08-24T16:33:43.298Z,98412.22
2022-08-24T16:36:16.691Z,98415.47
2022-08-24T16:38:49.013Z,98414.41
2022-08-24T16:41:19.069Z,98420.25
2022-08-24T16:43:47.566Z,98432.31
2022-08-24T16:46:21.218Z,98418.97
2022-08-24T16:48:49.861Z,98421.97
2022-08-24T16:51:19.750Z,98425.84
2022-08-24T16:53:48.066Z,98429.22
2022-08-24T16:56:17.031Z,98417.34
2022-08-24T16:58:47.562Z,98409.88
2022-08-24T17:01:16.271Z,98424.63
2022-08-24T17:03:44.647Z,98430.34
2022-08-24T17:06:13.422Z,98430.38
2022-08-24T17:08:42.990Z,98427.56
2022-08-24T17:11:11.579Z,98435.56
2022-08-24T17:13:49.280Z,98422.28
2022-08-24T17:16:19.328Z,98429.16
2022-08-24T17:18:47.514Z,98430.16
2022-08-24T17:21:16.103Z,98430.06
2022-08-24T17:23:46.095Z,98431.75
2022-08-24T17:26:20.553Z,98433.78
2022-08-24T17:28:52.694Z,98433.84
2022-08-24T17:31:21.120Z,98442.66
2022-08-24T17:33:49.308Z,98446.88
2022-08-24T17:36:20.157Z,98433.69
2022-08-24T17:38:56.385Z,98438.78
2022-08-24T17:41:25.992Z,98435.22
2022-08-24T17:43:54.726Z,98433.44
2022-08-24T17:46:24.234Z,98441.13
2022-08-24T17:48:52.865Z,98444.13
2022-08-24T17:51:21.330Z,98459.75
2022-08-24T17:53:49.891Z,98448.31
2022-08-24T17:56:20.663Z,98469.81
2022-08-24T17:59:06.804Z,98469.59
2022-08-24T18:01:35.249Z,98465.94
2022-08-24T18:04:04.005Z,98457.88
2022-08-24T18:06:32.795Z,98471.97
2022-08-24T18:09:02.878Z,98469.50
2022-08-24T18:11:32.453Z,98475.56
2022-08-24T18:14:01.692Z,98484.09
2022-08-24T18:16:30.428Z,98484.88
2022-08-24T18:18:58.754Z,98487.69
2022-08-24T18:21:27.081Z,98488.09
2022-08-24T18:23:56.129Z,98483.69
2022-08-24T18:26:28.481Z,98480.84
2022-08-24T18:29:02.527Z,98480.88
2022-08-24T18:31:31.945Z,98488.44
2022-08-24T18:34:00.322Z,98484.81
2022-08-24T18:36:29.012Z,98483.97
2022-08-24T18:38:57.391Z,98483.97
2022-08-24T18:41:27.606Z,98481.22
2022-08-24T18:43:55.879Z,98488.75
2022-08-24T18:46:26.152Z,98494.50
2022-08-24T18:48:54.534Z,98495.19
2022-08-24T18:51:24.183Z,98492.03
2022-08-24T18:54:01.207Z,98495.31
2022-08-24T18:56:29.428Z,98505.63
2022-08-24T18:58:58.323Z,98500.00
2022-08-24T19:01:28.880Z,98500.06
2022-08-24T19:03:57.639Z,98496.78
2022-08-24T19:06:26.248Z,98497.41
2022-08-24T19:08:54.467Z,98492.72
2022-08-24T19:11:24.940Z,98494.91
2022-08-24T19:13:53.389Z,98490.88
2022-08-24T19:16:21.471Z,98486.47
2022-08-24T19:18:52.291Z,98487.72
2022-08-24T19:21:20.732Z,98497.66
2022-08-24T19:23:49.220Z,98502.41
2022-08-24T19:26:18.608Z,98500.38
2022-08-24T19:28:46.899Z,98501.66
2022-08-24T19:31:23.563Z,98490.00
2022-08-24T19:33:53.978Z,98493.28
2022-08-24T19:36:22.507Z,98483.88
2022-08-24T19:38:50.844Z,98489.13
2022-08-24T19:41:21.445Z,98498.00
2022-08-24T19:44:10.543Z,98490.50
2022-08-24T19:46:43.148Z,98493.72
2022-08-24T19:49:13.014Z,98498.59
2022-08-24T19:51:41.136Z,98497.72
2022-08-24T19:54:09.619Z,98507.03
2022-08-24T19:56:37.826Z,98506.59
2022-08-24T19:59:09.193Z,98514.28
2022-08-24T20:01:38.181Z,98517.03
2022-08-24T20:04:07.676Z,98520.31
2022-08-24T20:06:39.169Z,98515.50
2022-08-24T20:09:08.509Z,98520.25
2022-08-24T20:11:39.062Z,98519.06
2022-08-24T20:14:07.299Z,98519.84
2022-08-24T20:16:38.351Z,98521.50
2022-08-24T20:19:07.277Z,98524.28
2022-08-24T20:21:35.912Z,98528.25
2022-08-24T20:24:06.488Z,98536.34
2022-08-24T20:26:39.326Z,98533.41
2022-08-24T20:29:07.856Z,98533.53
2022-08-24T20:31:36.610Z,98527.28
2022-08-24T20:34:04.987Z,98524.03
2022-08-24T20:36:36.587Z,98519.66
2022-08-24T20:39:08.491Z,98527.97
2022-08-24T20:41:37.346Z,98534.09
2022-08-24T20:44:06.036Z,98532.22
2022-08-24T20:46:34.186Z,98538.25
2022-08-24T20:49:03.158Z,98542.28
2022-08-24T20:51:31.370Z,98542.69
2022-08-24T20:54:02.137Z,98545.44
2022-08-24T20:56:33.388Z,98548.50
2022-08-24T20:59:02.750Z,98550.44
2022-08-24T21:01:31.097Z,98552.44
2022-08-24T21:04:04.723Z,98561.91
2022-08-24T21:06:33.906Z,98557.09
2022-08-24T21:09:02.630Z,98553.69
2022-08-24T21:11:33.097Z,98555.84
2022-08-24T21:14:01.531Z,98552.38
2022-08-24T21:16:30.173Z,98553.50
2022-08-24T21:18:58.455Z,98554.47
2022-08-24T21:21:28.209Z,98537.06
2022-08-24T21:23:56.464Z,98552.47
2022-08-24T21:26:26.640Z,98547.13
2022-08-24T21:28:58.088Z,98542.19
2022-08-24T21:31:26.873Z,98545.00
2022-08-24T21:34:13.106Z,98546.59
2022-08-24T21:36:41.986Z,98555.94
2022-08-24T21:39:11.107Z,98547.50
2022-08-24T21:41:39.658Z,98540.44
2022-08-24T21:44:09.322Z,98528.00
2022-08-24T21:46:39.416Z,98529.25
2022-08-24T21:49:11.823Z,98517.97
2022-08-24T21:51:41.246Z,98524.03
2022-08-24T21:54:09.585Z,98523.09
2022-08-24T21:56:37.784Z,98518.72
2022-08-24T21:59:06.999Z,98529.22
2022-08-24T22:01:38.781Z,98518.78
2022-08-24T22:04:08.183Z,98520.72
2022-08-24T22:06:36.586Z,98518.28
2022-08-24T22:09:05.225Z,98516.69
2022-08-24T22:11:33.622Z,98520.06
2022-08-24T22:14:02.975Z,98525.03
2022-08-24T22:16:31.323Z,98525.41
2022-08-24T22:19:04.185Z,98530.38
2022-08-24T22:21:36.078Z,98532.41
2022-08-24T22:24:05.155Z,98532.41
2022-08-24T22:26:33.799Z,98531.06
2022-08-24T22:29:02.232Z,98530.75
2022-08-24T22:31:33.540Z,98534.84
2022-08-24T22:34:05.538Z,98530.34
2022-08-24T22:36:34.153Z,98525.06
2022-08-24T22:39:02.466Z,98525.50
2022-08-24T22:41:32.492Z,98523.22
2022-08-24T22:44:18.400Z,98520.22
2022-08-24T22:46:47.031Z,98523.03
2022-08-24T22:49:17.366Z,98513.00
2022-08-24T22:51:46.360Z,98515.25
2022-08-24T22:54:14.714Z,98513.50
2022-08-24T22:56:45.178Z,98509.84
2022-08-24T22:59:16.883Z,98506.09
2022-08-24T23:01:46.988Z,98510.16
2022-08-24T23:04:18.715Z,98515.25
2022-08-24T23:06:47.445Z,98519.97
2022-08-24T23:09:15.851Z,98518.84
2022-08-24T23:11:45.256Z,98512.47
2022-08-24T23:14:14.912Z,98516.03
2022-08-24T23:16:47.829Z,98508.34
2022-08-24T23:19:36.521Z,98506.38
2022-08-24T23:22:05.306Z,98508.88
2022-08-24T23:24:34.132Z,98505.97
2022-08-24T23:27:03.277Z,98511.81
2022-08-24T23:29:31.695Z,98505.03
2022-08-24T23:32:00.341Z,98512.25
2022-08-24T23:34:30.394Z,98507.16
2022-08-24T23:36:58.981Z,98508.63
2022-08-24T23:39:27.996Z,98509.44
2022-08-24T23:41:56.354Z,98505.25
2022-08-24T23:44:27.749Z,98505.16
2022-08-24T23:46:56.577Z,98506.84
2022-08-24T23:49:26.067Z,98500.66
2022-08-24T23:51:56.313Z,98503.94
2022-08-24T23:54:25.073Z,98498.69
2022-08-24T23:56:54.269Z,98498.28
2022-08-24T23:59:25.013Z,98495.63
